Time;durP1;ratioP1;P1;durP2;ratioP2;P2;SDS_P1;SDS_P2;PMS_P1;PMS_P2;Temp;Humidity;BMP_temperature;BMP_pressure;BME280_temperature;BME280_humidity;BME280_pressure;Samples;Min_cycle;Max_cycle;Signal;HPM_P1;HPM_P2
2022/11/30 00:02:08;;;;;;;8.45;4.72;;;26.60;99.40;;;;;;1797183;78;21285;-89
2022/11/30 00:04:40;;;;;;;10.60;5.05;;;26.60;99.50;;;;;;1786395;79;21694;-88
2022/11/30 00:07:11;;;;;;;11.40;6.03;;;26.60;99.50;;;;;;1779669;80;21174;-88
2022/11/30 00:09:42;;;;;;;8.35;4.78;;;26.60;99.40;;;;;;1784403;79;21195;-87
2022/11/30 00:12:13;;;;;;;9.45;4.65;;;26.70;99.40;;;;;;1782879;79;21277;-88
2022/11/30 00:14:59;;;;;;;9.68;4.62;;;26.70;99.40;;;;;;1788267;80;21689;-85
2022/11/30 00:17:20;;;;;;;9.30;5.10;;;26.70;99.30;;;;;;1788673;79;21277;-86
2022/11/30 00:19:50;;;;;;;8.25;5.20;;;26.80;99.30;;;;;;1779261;79;21194;-85
2022/11/30 00:22:21;;;;;;;8.28;4.87;;;26.80;99.30;;;;;;1781605;79;21158;-85
2022/11/30 00:24:52;;;;;;;12.03;5.90;;;26.80;99.20;;;;;;1791561;79;21123;-86
2022/11/30 00:27:23;;;;;;;6.70;5.28;;;26.80;99.20;;;;;;1785761;79;21268;-85
2022/11/30 00:29:54;;;;;;;9.13;6.28;;;26.80;99.20;;;;;;1782863;80;21610;-83
2022/11/30 00:32:26;;;;;;;7.87;6.42;;;26.90;99.30;;;;;;1780664;79;21158;-85
2022/11/30 00:35:02;;;;;;;8.48;6.55;;;26.90;99.30;;;;;;1783133;79;21204;-85
2022/11/30 00:37:29;;;;;;;10.82;6.75;;;26.90;99.40;;;;;;1788463;78;21403;-85
2022/11/30 00:40:00;;;;;;;13.88;9.05;;;27.00;99.20;;;;;;1785802;79;21178;-85
2022/11/30 00:42:31;;;;;;;12.75;7.65;;;27.10;99.10;;;;;;1771448;79;21807;-71
2022/11/30 00:45:02;;;;;;;15.25;10.55;;;27.20;99.00;;;;;;1793608;79;21667;-71
2022/11/30 00:47:33;;;;;;;16.67;10.13;;;27.30;98.80;;;;;;1761726;79;21263;-71
2022/11/30 00:50:05;;;;;;;14.45;10.70;;;27.40;98.80;;;;;;1784343;79;21155;-71
2022/11/30 00:52:36;;;;;;;15.55;10.78;;;27.40;98.70;;;;;;1786141;79;22033;-71
2022/11/30 00:55:08;;;;;;;18.37;10.23;;;27.50;98.60;;;;;;1783228;80;21182;-72
2022/11/30 00:57:39;;;;;;;19.17;11.53;;;27.60;98.50;;;;;;1784721;79;21163;-72
2022/11/30 01:00:10;;;;;;;17.70;12.28;;;27.60;98.40;;;;;;1788901;78;21264;-72
2022/11/30 01:02:41;;;;;;;15.32;11.68;;;27.70;98.40;;;;;;1748222;80;21749;-72
2022/11/30 01:05:12;;;;;;;18.00;11.65;;;27.70;98.30;;;;;;1789348;79;21134;-72
2022/11/30 01:07:43;;;;;;;17.82;12.53;;;27.70;98.30;;;;;;1788818;79;21210;-72
2022/11/30 01:10:14;;;;;;;17.70;12.20;;;27.80;98.20;;;;;;1787110;79;21214;-71
2022/11/30 01:12:45;;;;;;;14.25;11.60;;;27.90;98.10;;;;;;1747437;81;21162;-72
2022/11/30 01:15:16;;;;;;;24.32;12.60;;;27.90;98.00;;;;;;1785711;79;21131;-71
2022/11/30 01:17:47;;;;;;;21.05;13.55;;;28.00;98.00;;;;;;1788277;79;21221;-72
2022/11/30 01:20:18;;;;;;;19.12;13.72;;;28.00;98.00;;;;;;1784751;79;21182;-72
2022/11/30 01:22:49;;;;;;;19.57;13.55;;;28.10;97.90;;;;;;1776299;79;21162;-72
2022/11/30 01:25:19;;;;;;;13.60;11.03;;;28.10;97.70;;;;;;1783946;78;21198;-71
2022/11/30 01:27:50;;;;;;;18.77;13.43;;;28.20;97.60;;;;;;1752486;81;22004;-71
2022/11/30 01:30:23;;;;;;;16.60;11.90;;;28.20;97.40;;;;;;1753986;80;21203;-72
2022/11/30 01:32:53;;;;;;;17.25;11.48;;;28.20;97.30;;;;;;1750938;80;21134;-71
2022/11/30 01:35:24;;;;;;;14.90;10.35;;;28.30;97.20;;;;;;1785534;78;21158;-72
2022/11/30 01:37:58;;;;;;;16.82;10.90;;;28.30;97.00;;;;;;1782984;78;21147;-72
2022/11/30 01:40:28;;;;;;;11.70;9.38;;;28.40;97.30;;;;;;1785182;78;21115;-71
2022/11/30 01:42:59;;;;;;;14.13;10.03;;;28.50;96.70;;;;;;1779322;79;21138;-72
2022/11/30 01:45:31;;;;;;;13.10;9.50;;;28.50;96.60;;;;;;1782220;79;22192;-71
2022/11/30 01:48:04;;;;;;;12.78;9.33;;;28.60;96.50;;;;;;1780053;80;21643;-71
2022/11/30 01:50:36;;;;;;;14.95;9.85;;;28.70;96.30;;;;;;1781986;78;21608;-71
2022/11/30 01:53:11;;;;;;;13.13;9.03;;;28.70;96.20;;;;;;1789419;78;21205;-71
2022/11/30 01:55:48;;;;;;;14.47;8.93;;;28.80;96.10;;;;;;1785025;78;21138;-71
2022/11/30 01:58:21;;;;;;;13.32;7.80;;;28.80;95.90;;;;;;1782518;79;21189;-72
2022/11/30 02:00:52;;;;;;;15.75;8.50;;;28.80;95.80;;;;;;1781110;78;21668;-73
2022/11/30 02:03:50;;;;;;;13.55;8.03;;;28.90;95.80;;;;;;1788439;78;21194;-71
2022/11/30 02:06:23;;;;;;;14.87;9.18;;;28.90;95.70;;;;;;1783155;79;21222;-71
2022/11/30 02:08:55;;;;;;;13.75;7.85;;;29.00;95.50;;;;;;1729594;83;21236;-72
2022/11/30 02:11:27;;;;;;;11.83;7.30;;;29.10;95.40;;;;;;1749546;80;21285;-72
2022/11/30 02:14:04;;;;;;;13.15;7.10;;;29.10;95.20;;;;;;1756035;80;21624;-72
2022/11/30 02:16:53;;;;;;;13.22;7.72;;;29.20;95.00;;;;;;1790360;79;21637;-72
2022/11/30 02:19:59;;;;;;;11.93;7.30;;;29.20;94.60;;;;;;1763025;79;21173;-73
2022/11/30 02:22:54;;;;;;;12.80;8.25;;;29.30;94.60;;;;;;1800174;79;21287;-73
2022/11/30 02:26:02;;;;;;;13.20;6.62;;;29.30;94.40;;;;;;1775063;79;21654;-73
2022/11/30 02:28:56;;;;;;;15.32;7.28;;;29.40;94.50;;;;;;1795308;78;21142;-72
2022/11/30 02:31:45;;;;;;;11.85;7.65;;;29.50;94.10;;;;;;1779999;79;21672;-71
2022/11/30 02:34:22;;;;;;;11.45;7.62;;;29.70;94.10;;;;;;1730515;81;21235;-72
2022/11/30 02:36:50;;;;;;;15.25;8.48;;;29.70;93.90;;;;;;1741102;81;21241;-72
2022/11/30 02:39:24;;;;;;;12.68;8.00;;;29.80;93.90;;;;;;1792130;79;21167;-73
2022/11/30 02:41:55;;;;;;;12.30;8.60;;;29.80;93.70;;;;;;1777824;80;21262;-72
2022/11/30 02:44:27;;;;;;;10.10;7.15;;;29.80;93.40;;;;;;1787835;78;21229;-73
2022/11/30 02:47:20;;;;;;;16.90;7.85;;;29.80;93.10;;;;;;1726344;83;21232;-73
2022/11/30 02:50:00;;;;;;;11.35;7.42;;;29.80;93.00;;;;;;1793080;79;21210;-72
2022/11/30 02:52:34;;;;;;;14.63;7.15;;;29.90;92.90;;;;;;1785835;79;21513;-71
2022/11/30 02:55:08;;;;;;;10.35;7.08;;;29.90;93.00;;;;;;1789943;79;21155;-73
2022/11/30 02:57:39;;;;;;;10.10;7.40;;;30.00;93.00;;;;;;1782188;80;21211;-72
2022/11/30 03:00:11;;;;;;;10.35;7.75;;;30.10;92.40;;;;;;1772606;78;21086;-73
2022/11/30 03:02:43;;;;;;;10.68;7.33;;;30.20;92.50;;;;;;1791873;79;21161;-72
2022/11/30 03:05:14;;;;;;;10.43;7.08;;;30.20;92.40;;;;;;1789180;79;21574;-73
2022/11/30 03:07:45;;;;;;;12.75;6.50;;;30.30;92.30;;;;;;1779541;80;21252;-72
2022/11/30 03:10:16;;;;;;;12.68;7.35;;;30.40;92.40;;;;;;1789212;79;21214;-72
2022/11/30 03:12:47;;;;;;;13.03;7.05;;;30.40;92.00;;;;;;1755169;81;21693;-72
2022/11/30 03:15:18;;;;;;;11.28;6.80;;;30.50;91.90;;;;;;1791854;79;21229;-72
2022/11/30 03:17:49;;;;;;;13.30;7.87;;;30.60;91.70;;;;;;1798451;78;21780;-71
2022/11/30 03:20:20;;;;;;;10.90;6.65;;;30.60;91.80;;;;;;1790923;79;21266;-71
2022/11/30 03:22:50;;;;;;;10.78;6.97;;;30.70;91.60;;;;;;1782734;80;21221;-72
2022/11/30 03:25:21;;;;;;;12.15;6.95;;;30.80;91.50;;;;;;1794697;78;21644;-72
2022/11/30 03:27:52;;;;;;;12.13;6.37;;;30.80;91.60;;;;;;1795898;79;21158;-70
2022/11/30 03:30:23;;;;;;;9.45;5.30;;;30.90;91.30;;;;;;1790778;79;21239;-72
2022/11/30 03:32:54;;;;;;;7.95;4.87;;;31.00;90.80;;;;;;1781077;78;21143;-72
2022/11/30 03:35:26;;;;;;;7.47;5.00;;;31.10;90.70;;;;;;1789766;79;21174;-70
2022/11/30 03:37:59;;;;;;;9.70;6.03;;;31.20;90.50;;;;;;1793269;79;21298;-71
2022/11/30 03:40:30;;;;;;;7.70;5.58;;;31.30;90.40;;;;;;1782677;80;21272;-70
2022/11/30 03:43:01;;;;;;;10.48;6.10;;;31.50;90.10;;;;;;1783204;78;21131;-69
2022/11/30 03:45:32;;;;;;;8.55;5.70;;;31.50;90.00;;;;;;1779922;80;21178;-71
2022/11/30 03:48:03;;;;;;;7.67;5.28;;;31.60;89.90;;;;;;1727498;82;21191;-72
2022/11/30 03:50:33;;;;;;;12.18;8.73;;;31.70;88.90;;;;;;1778572;80;21218;-72
2022/11/30 03:53:04;;;;;;;9.00;5.53;;;31.80;86.70;;;;;;1778603;78;21092;-73
2022/11/30 03:55:41;;;;;;;8.28;5.65;;;32.00;87.00;;;;;;1790772;79;21139;-72
2022/11/30 03:58:12;;;;;;;7.72;5.20;;;32.00;87.00;;;;;;1783016;80;21572;-72
2022/11/30 04:00:43;;;;;;;8.88;5.70;;;31.90;87.40;;;;;;1772596;80;21253;-71
2022/11/30 04:03:14;;;;;;;11.10;9.65;;;31.80;88.00;;;;;;1787077;79;21630;-72
2022/11/30 04:05:46;;;;;;;7.67;5.50;;;31.70;87.20;;;;;;1781345;79;21138;-71
2022/11/30 04:08:17;;;;;;;7.00;5.08;;;31.80;87.60;;;;;;1783676;80;21163;-69
2022/11/30 04:10:54;;;;;;;6.08;4.97;;;32.00;87.00;;;;;;1784443;79;21268;-71
2022/11/30 04:13:25;;;;;;;5.85;4.90;;;32.20;86.50;;;;;;1784212;80;21119;-71
2022/11/30 04:15:58;;;;;;;8.75;5.05;;;32.30;86.70;;;;;;1728687;83;21213;-71
2022/11/30 04:18:37;;;;;;;8.15;5.17;;;32.50;85.70;;;;;;1749855;81;21186;-71
2022/11/30 04:21:08;;;;;;;5.53;4.62;;;32.60;83.90;;;;;;1781521;79;21603;-71
2022/11/30 04:23:40;;;;;;;7.65;5.25;;;32.70;83.80;;;;;;1785703;80;21564;-71
2022/11/30 04:26:13;;;;;;;7.70;5.37;;;32.80;82.00;;;;;;1788198;79;21205;-71
2022/11/30 04:28:44;;;;;;;12.28;5.35;;;32.70;82.30;;;;;;1781252;79;21169;-72
2022/11/30 04:31:17;;;;;;;8.78;5.65;;;32.80;82.90;;;;;;1794696;78;21699;-72
2022/11/30 04:33:50;;;;;;;6.12;4.62;;;32.90;82.50;;;;;;1776917;79;21177;-70
2022/11/30 04:36:21;;;;;;;5.92;4.17;;;33.10;82.30;;;;;;1794194;78;21183;-72
2022/11/30 04:38:52;;;;;;;6.17;4.90;;;33.20;82.30;;;;;;1772880;80;21343;-72
2022/11/30 04:41:23;;;;;;;6.65;4.92;;;33.10;82.10;;;;;;1784993;78;21267;-71
2022/11/30 04:43:54;;;;;;;7.08;5.15;;;32.90;82.00;;;;;;1784728;80;21786;-71
2022/11/30 04:46:25;;;;;;;8.80;5.35;;;32.80;82.20;;;;;;1783915;79;21110;-71
2022/11/30 04:48:59;;;;;;;8.50;4.78;;;32.60;82.60;;;;;;1794166;78;21744;-72
2022/11/30 04:51:30;;;;;;;7.72;4.78;;;32.40;83.60;;;;;;1792937;78;21949;-71
2022/11/30 04:54:01;;;;;;;7.78;5.72;;;32.20;84.10;;;;;;1788690;79;21565;-72
2022/11/30 04:56:31;;;;;;;7.50;4.90;;;32.00;84.50;;;;;;1783305;79;21211;-71
2022/11/30 04:59:02;;;;;;;6.80;5.03;;;31.90;85.50;;;;;;1776448;80;21140;-70
2022/11/30 05:01:33;;;;;;;7.20;5.10;;;31.80;86.30;;;;;;1803566;78;21155;-71
2022/11/30 05:04:06;;;;;;;6.60;4.78;;;31.70;86.10;;;;;;1781533;79;21099;-70
2022/11/30 05:06:38;;;;;;;8.48;5.92;;;31.60;86.70;;;;;;1723390;82;21690;-71
2022/11/30 05:09:08;;;;;;;6.50;5.30;;;31.70;86.90;;;;;;1735535;80;21191;-70
2022/11/30 05:11:41;;;;;;;6.40;5.37;;;31.80;85.90;;;;;;1786361;79;21217;-72
2022/11/30 05:14:11;;;;;;;6.12;4.75;;;32.00;85.80;;;;;;1786033;80;21221;-72
2022/11/30 05:16:42;;;;;;;6.00;4.62;;;32.20;85.00;;;;;;1784706;79;21182;-72
2022/11/30 05:19:13;;;;;;;7.65;4.50;;;32.40;83.50;;;;;;1776737;79;21150;-72
2022/11/30 05:21:44;;;;;;;6.75;4.80;;;32.50;83.70;;;;;;1785410;80;21138;-72
2022/11/30 05:24:15;;;;;;;6.72;5.03;;;32.60;82.90;;;;;;1747523;81;21662;-72
2022/11/30 05:26:46;;;;;;;7.90;4.80;;;32.70;82.60;;;;;;1787573;80;21162;-72
2022/11/30 05:29:17;;;;;;;5.47;4.28;;;32.90;82.80;;;;;;1784579;80;21191;-71
2022/11/30 05:31:48;;;;;;;8.85;4.72;;;32.90;81.70;;;;;;1780247;80;21626;-72
2022/11/30 05:34:19;;;;;;;6.12;4.87;;;33.10;82.10;;;;;;1752849;80;21646;-72
2022/11/30 05:36:50;;;;;;;6.47;4.70;;;33.20;80.80;;;;;;1744327;82;21241;-72
2022/11/30 05:39:21;;;;;;;16.32;6.12;;;33.30;81.50;;;;;;1774446;79;21099;-71
2022/11/30 05:41:52;;;;;;;7.28;4.10;;;33.30;80.50;;;;;;1781925;80;21607;-71
2022/11/30 05:44:23;;;;;;;7.25;4.50;;;33.40;81.30;;;;;;1785720;79;21698;-71
2022/11/30 05:46:54;;;;;;;9.45;5.60;;;33.50;81.50;;;;;;1781642;80;21166;-71
2022/11/30 05:49:25;;;;;;;9.83;5.20;;;33.60;79.80;;;;;;1784900;80;21700;-72
2022/11/30 05:52:00;;;;;;;6.55;4.20;;;33.70;81.20;;;;;;1777978;80;21167;-71
2022/11/30 05:54:36;;;;;;;7.25;3.95;;;33.80;78.60;;;;;;1779376;79;21111;-72
2022/11/30 05:57:08;;;;;;;5.50;4.10;;;33.90;77.40;;;;;;1779722;79;21225;-72
2022/11/30 05:59:39;;;;;;;6.17;4.28;;;33.90;77.60;;;;;;1792310;79;21719;-71
2022/11/30 06:02:09;;;;;;;7.17;4.25;;;33.90;77.40;;;;;;1783382;79;21139;-71
2022/11/30 06:04:40;;;;;;;6.17;4.60;;;33.80;78.20;;;;;;1786132;78;21780;-70
2022/11/30 06:07:11;;;;;;;7.75;4.87;;;33.60;78.10;;;;;;1785103;79;21154;-71
2022/11/30 06:09:42;;;;;;;6.65;4.65;;;33.40;79.30;;;;;;1784339;79;21107;-71
2022/11/30 06:12:14;;;;;;;7.97;4.25;;;33.30;78.90;;;;;;1790704;79;21289;-70
2022/11/30 06:14:45;;;;;;;8.00;4.40;;;33.10;79.60;;;;;;1773721;78;21212;-73
2022/11/30 06:17:16;;;;;;;6.35;4.25;;;32.90;80.00;;;;;;1757805;81;21123;-71
2022/11/30 06:19:47;;;;;;;7.62;4.92;;;32.70;80.60;;;;;;1782709;80;21369;-72
2022/11/30 06:22:20;;;;;;;5.30;3.85;;;32.60;81.20;;;;;;1781359;78;21177;-72
2022/11/30 06:24:53;;;;;;;6.58;4.33;;;32.60;81.00;;;;;;1775857;79;21188;-73
2022/11/30 06:27:24;;;;;;;5.60;4.12;;;32.70;80.80;;;;;;1785388;79;21249;-72
2022/11/30 06:29:55;;;;;;;9.25;4.40;;;32.70;80.50;;;;;;1757707;81;21586;-72
2022/11/30 06:32:26;;;;;;;5.62;4.35;;;32.90;80.60;;;;;;1782053;79;21682;-72
2022/11/30 06:34:57;;;;;;;5.50;4.10;;;33.00;80.30;;;;;;1786062;79;21166;-71
2022/11/30 06:37:27;;;;;;;6.85;4.53;;;33.20;80.20;;;;;;1786325;79;21210;-72
2022/11/30 06:39:58;;;;;;;8.18;4.67;;;33.40;80.00;;;;;;1757149;80;21194;-72
2022/11/30 06:42:31;;;;;;;6.67;4.62;;;33.50;79.60;;;;;;1784172;79;21118;-71
2022/11/30 06:45:02;;;;;;;7.78;4.42;;;33.60;79.00;;;;;;1784598;78;21119;-71
2022/11/30 06:47:33;;;;;;;6.85;4.75;;;33.70;78.40;;;;;;1788260;78;21661;-73
2022/11/30 06:50:07;;;;;;;8.58;4.70;;;33.60;78.30;;;;;;1784582;80;21488;-73
2022/11/30 06:52:40;;;;;;;10.25;4.95;;;33.50;79.00;;;;;;1777833;80;21080;-73
2022/11/30 06:55:12;;;;;;;12.23;5.15;;;33.40;79.60;;;;;;1728513;83;21222;-72
2022/11/30 06:57:42;;;;;;;15.88;6.90;;;33.40;80.20;;;;;;1790107;79;21131;-70
2022/11/30 07:00:14;;;;;;;10.72;4.60;;;33.20;80.50;;;;;;1784435;80;21186;-71
2022/11/30 07:02:45;;;;;;;7.45;3.87;;;33.10;80.70;;;;;;1785677;79;21599;-71
2022/11/30 07:05:16;;;;;;;10.72;5.12;;;33.00;80.70;;;;;;1797041;79;21178;-71
2022/11/30 07:07:46;;;;;;;5.72;4.12;;;32.90;80.80;;;;;;1791013;80;21626;-71
2022/11/30 07:10:18;;;;;;;5.87;3.55;;;32.90;80.30;;;;;;1782640;79;21158;-71
2022/11/30 07:12:49;;;;;;;8.65;4.50;;;33.00;79.30;;;;;;1784417;79;22206;-72
2022/11/30 07:15:20;;;;;;;7.33;4.17;;;33.10;79.30;;;;;;1783328;79;21155;-73
2022/11/30 07:17:51;;;;;;;5.28;3.92;;;33.10;79.50;;;;;;1785304;80;21218;-72
2022/11/30 07:20:22;;;;;;;5.25;3.62;;;33.10;79.20;;;;;;1781827;79;21092;-73
2022/11/30 07:22:56;;;;;;;5.20;3.75;;;33.10;79.40;;;;;;1784109;78;21652;-72
2022/11/30 07:28:16;;;;;;;5.60;3.85;;;32.90;80.40;;;;;;1724740;81;21768;-73
2022/11/30 07:30:47;;;;;;;4.58;3.90;;;32.70;80.40;;;;;;1769239;80;21201;-73
2022/11/30 07:33:18;;;;;;;6.33;3.92;;;32.60;80.30;;;;;;1782280;80;21519;-73
2022/11/30 07:35:48;;;;;;;5.47;3.50;;;32.60;80.40;;;;;;1778905;79;21226;-71
2022/11/30 07:38:19;;;;;;;7.97;3.90;;;32.50;80.40;;;;;;1780875;79;21204;-72
2022/11/30 07:40:50;;;;;;;5.75;4.10;;;32.40;80.40;;;;;;1784752;79;21159;-71
2022/11/30 07:43:23;;;;;;;10.50;4.40;;;32.40;79.90;;;;;;1783463;79;21153;-71
2022/11/30 07:45:56;;;;;;;6.70;4.65;;;32.30;80.60;;;;;;1752295;80;21297;-71
2022/11/30 07:48:28;;;;;;;5.55;3.67;;;32.30;81.20;;;;;;1782823;78;21110;-72
2022/11/30 07:51:05;;;;;;;5.25;3.83;;;32.30;81.00;;;;;;1787499;80;21120;-71
2022/11/30 07:53:36;;;;;;;6.75;4.20;;;32.20;80.80;;;;;;1786242;80;21115;-72
2022/11/30 07:56:10;;;;;;;8.40;4.15;;;32.20;80.90;;;;;;1786205;79;21241;-72
2022/11/30 07:58:42;;;;;;;8.53;5.10;;;32.20;80.20;;;;;;1802235;79;21192;-72
2022/11/30 08:01:18;;;;;;;5.67;4.50;;;32.20;80.40;;;;;;1793989;78;21228;-73
2022/11/30 08:03:50;;;;;;;7.62;4.30;;;32.10;80.60;;;;;;1785903;79;21171;-73
2022/11/30 08:06:26;;;;;;;5.70;4.15;;;32.10;80.70;;;;;;1794930;79;21182;-68
2022/11/30 08:09:02;;;;;;;6.67;5.30;;;32.10;80.50;;;;;;1748064;81;21219;-73
2022/11/30 08:11:38;;;;;;;8.05;5.33;;;32.10;80.70;;;;;;1780519;80;21123;-72
2022/11/30 08:14:09;;;;;;;12.23;5.10;;;32.00;80.90;;;;;;1781925;79;21611;-73
2022/11/30 08:16:42;;;;;;;6.22;4.20;;;32.10;80.80;;;;;;1783890;79;21748;-72
2022/11/30 08:19:12;;;;;;;7.83;4.62;;;32.00;80.80;;;;;;1783279;79;21684;-72
2022/11/30 08:21:44;;;;;;;20.60;6.17;;;32.00;81.00;;;;;;1780882;78;21134;-73
2022/11/30 08:24:15;;;;;;;13.35;4.42;;;32.00;81.30;;;;;;1724358;82;21224;-73
2022/11/30 08:26:46;;;;;;;11.88;4.15;;;32.00;81.50;;;;;;1760932;79;21175;-73
2022/11/30 08:29:17;;;;;;;9.73;4.33;;;32.00;81.50;;;;;;1788544;79;21657;-73
2022/11/30 08:31:48;;;;;;;4.50;3.95;;;32.00;80.90;;;;;;1786044;80;21330;-72
2022/11/30 08:34:19;;;;;;;7.67;3.80;;;31.90;80.90;;;;;;1793977;79;21154;-72
2022/11/30 08:36:51;;;;;;;7.72;5.78;;;32.00;80.50;;;;;;1792571;78;21174;-73
2022/11/30 08:39:22;;;;;;;12.40;5.00;;;32.00;80.00;;;;;;1786187;80;21123;-73
2022/11/30 08:41:53;;;;;;;10.63;4.65;;;32.00;80.00;;;;;;1780920;79;21208;-72
2022/11/30 08:44:26;;;;;;;10.53;4.55;;;32.10;80.30;;;;;;1784995;79;21205;-71
2022/11/30 08:46:57;;;;;;;9.00;4.67;;;32.20;79.80;;;;;;1776148;79;21189;-71
2022/11/30 08:49:28;;;;;;;5.90;4.00;;;32.30;79.00;;;;;;1796312;78;21169;-72
2022/11/30 08:51:59;;;;;;;11.35;5.12;;;32.30;79.00;;;;;;1767116;80;21163;-72
2022/11/30 08:54:31;;;;;;;17.42;6.25;;;32.40;79.20;;;;;;1803636;78;21225;-72
2022/11/30 08:57:02;;;;;;;6.72;4.30;;;32.50;79.40;;;;;;1791332;78;21123;-72
2022/11/30 08:59:34;;;;;;;9.83;4.75;;;32.60;79.20;;;;;;1787090;79;21733;-71
2022/11/30 09:02:05;;;;;;;6.42;4.00;;;32.60;78.40;;;;;;1751757;80;21429;-71
2022/11/30 09:04:36;;;;;;;7.12;4.33;;;32.60;78.50;;;;;;1790219;78;21940;-70
2022/11/30 09:07:08;;;;;;;8.25;5.00;;;32.70;78.70;;;;;;1798733;79;21182;-71
2022/11/30 09:09:39;;;;;;;9.83;5.12;;;32.70;78.30;;;;;;1787921;78;21167;-72
2022/11/30 09:12:11;;;;;;;6.15;4.10;;;32.70;78.40;;;;;;1792829;78;21111;-72
2022/11/30 09:14:43;;;;;;;6.83;3.90;;;32.80;78.30;;;;;;1784447;79;21610;-72
2022/11/30 09:17:16;;;;;;;6.42;3.77;;;32.80;77.80;;;;;;1788677;78;21146;-71
2022/11/30 09:19:47;;;;;;;6.67;3.67;;;32.80;77.00;;;;;;1798726;78;21123;-69
2022/11/30 09:22:18;;;;;;;5.90;3.45;;;32.80;77.00;;;;;;1791968;78;21217;-70
2022/11/30 09:24:50;;;;;;;8.75;3.25;;;32.80;76.10;;;;;;1783718;79;21828;-72
2022/11/30 09:27:21;;;;;;;4.83;3.33;;;32.70;75.50;;;;;;1792025;79;21590;-70
2022/11/30 09:29:52;;;;;;;5.45;3.15;;;32.70;74.60;;;;;;1795119;79;21627;-68
2022/11/30 09:32:23;;;;;;;9.60;3.22;;;32.70;74.30;;;;;;1790899;79;21218;-72
2022/11/30 09:34:54;;;;;;;4.53;2.92;;;32.70;73.70;;;;;;1794269;78;22091;-72
2022/11/30 09:37:25;;;;;;;4.75;3.25;;;32.70;74.50;;;;;;1789833;79;21168;-71
2022/11/30 09:39:56;;;;;;;3.80;3.08;;;32.60;74.80;;;;;;1791679;78;21206;-70
2022/11/30 09:42:42;;;;;;;7.87;3.58;;;32.60;74.70;;;;;;1780361;79;21092;-70
2022/11/30 09:45:16;;;;;;;8.30;3.37;;;32.60;74.80;;;;;;1789595;80;21122;-72
2022/11/30 09:48:02;;;;;;;6.40;3.10;;;32.50;75.30;;;;;;1778150;80;21678;-72
2022/11/30 09:50:35;;;;;;;6.33;3.25;;;32.50;75.30;;;;;;1791050;79;21189;-69
2022/11/30 09:53:09;;;;;;;4.30;3.20;;;32.40;75.30;;;;;;1810590;78;21183;-71
2022/11/30 09:55:44;;;;;;;6.47;3.70;;;32.40;75.30;;;;;;1788593;79;21712;-71
2022/11/30 09:58:23;;;;;;;4.55;3.25;;;32.40;75.30;;;;;;1809216;78;21126;-71
2022/11/30 10:00:54;;;;;;;6.67;3.83;;;32.40;75.20;;;;;;1804734;78;21637;-71
2022/11/30 10:03:30;;;;;;;6.33;3.90;;;32.30;75.60;;;;;;1813064;79;21185;-71
2022/11/30 10:06:03;;;;;;;7.10;3.80;;;32.20;75.70;;;;;;1793312;78;21189;-70
2022/11/30 10:08:52;;;;;;;5.37;3.80;;;32.20;75.90;;;;;;1778015;80;21237;-71
2022/11/30 10:11:26;;;;;;;6.25;3.50;;;32.20;75.90;;;;;;1750455;80;21674;-72
2022/11/30 10:14:16;;;;;;;7.58;4.30;;;32.10;76.40;;;;;;1798123;78;21204;-70
2022/11/30 10:17:08;;;;;;;7.17;5.15;;;32.10;76.70;;;;;;1784830;80;21635;-70
2022/11/30 10:19:53;;;;;;;7.40;3.80;;;32.10;76.70;;;;;;1780092;80;22003;-71
2022/11/30 10:22:27;;;;;;;8.77;3.30;;;32.00;76.90;;;;;;1781801;78;21702;-71
2022/11/30 10:25:18;;;;;;;10.63;4.10;;;31.90;76.90;;;;;;1788215;80;21236;-69
2022/11/30 10:27:59;;;;;;;8.53;5.10;;;31.90;77.00;;;;;;1762955;80;21643;-70
2022/11/30 10:30:27;;;;;;;7.62;5.05;;;31.90;77.20;;;;;;1803467;78;21543;-70
2022/11/30 10:33:01;;;;;;;8.70;5.55;;;31.80;77.00;;;;;;1804138;78;21634;-71
2022/11/30 10:35:51;;;;;;;9.50;5.47;;;31.80;77.30;;;;;;1749245;80;21111;-71
2022/11/30 10:38:33;;;;;;;8.13;5.10;;;31.80;77.70;;;;;;1791676;80;21166;-70
2022/11/30 10:41:19;;;;;;;12.40;8.08;;;31.70;78.00;;;;;;1736320;81;22345;-70
2022/11/30 10:43:51;;;;;;;;;;;31.70;77.90;;;;;;1745943;81;21746;-71
2022/11/30 10:46:24;;;;;;;11.40;7.42;;;31.70;79.80;;;;;;1786996;78;20564;-70
2022/11/30 10:49:08;;;;;;;17.85;8.83;;;31.60;78.50;;;;;;1782125;79;21455;-70
2022/11/30 10:51:41;;;;;;;11.63;6.28;;;31.60;78.70;;;;;;1795392;78;21232;-70
2022/11/30 10:54:16;;;;;;;11.97;6.85;;;31.60;78.80;;;;;;1778967;80;21843;-70
2022/11/30 10:56:47;;;;;;;11.93;5.97;;;31.50;79.10;;;;;;1784618;79;21733;-70
2022/11/30 10:59:27;;;;;;;12.25;6.05;;;31.50;79.10;;;;;;1798433;78;21170;-70
2022/11/30 11:01:58;;;;;;;14.90;7.70;;;31.40;79.30;;;;;;1786733;79;21592;-72
2022/11/30 11:04:30;;;;;;;10.63;6.30;;;31.40;79.60;;;;;;1779910;79;21156;-73
2022/11/30 11:07:12;;;;;;;13.58;7.72;;;31.40;79.80;;;;;;1785073;79;21088;-72
2022/11/30 11:09:51;;;;;;;10.40;6.92;;;31.40;80.00;;;;;;1784689;79;21634;-71
2022/11/30 11:12:29;;;;;;;12.68;6.72;;;31.30;79.90;;;;;;1784807;80;21179;-72
2022/11/30 11:15:05;;;;;;;10.60;6.33;;;31.30;80.20;;;;;;1785355;78;21217;-71
2022/11/30 11:17:36;;;;;;;10.90;6.40;;;31.30;80.50;;;;;;1784800;80;21091;-72
2022/11/30 11:20:30;;;;;;;11.83;7.20;;;31.20;80.70;;;;;;1785345;79;21107;-71
2022/11/30 11:23:01;;;;;;;10.88;6.92;;;31.30;81.10;;;;;;1728125;82;21674;-71
2022/11/30 11:25:34;;;;;;;13.50;7.67;;;31.20;81.30;;;;;;1792585;78;21822;-72
2022/11/30 11:28:14;;;;;;;15.25;7.67;;;31.20;81.60;;;;;;1782964;78;21846;-72
2022/11/30 11:30:46;;;;;;;10.20;6.80;;;31.20;82.70;;;;;;1783614;80;21256;-71
2022/11/30 11:33:22;;;;;;;12.25;7.55;;;31.20;81.90;;;;;;1787283;79;21178;-71
2022/11/30 11:35:56;;;;;;;17.77;12.55;;;31.20;82.30;;;;;;1795339;78;21598;-71
2022/11/30 11:38:46;;;;;;;16.52;11.50;;;31.10;82.40;;;;;;1728199;82;21220;-71
2022/11/30 11:41:30;;;;;;;18.62;10.85;;;31.10;82.70;;;;;;1777824;79;21175;-72
2022/11/30 11:44:09;;;;;;;15.88;9.55;;;31.10;83.10;;;;;;1782885;79;21157;-72
2022/11/30 11:47:00;;;;;;;;;;;31.00;83.10;;;;;;1755065;79;21712;-72
2022/11/30 11:49:31;;;;;;;18.37;9.08;;;31.00;83.10;;;;;;1719352;81;20227;-72
2022/11/30 11:52:08;;;;;;;14.00;8.85;;;30.90;83.10;;;;;;1764011;79;21170;-72
2022/11/30 11:55:03;;;;;;;18.75;9.38;;;31.00;83.30;;;;;;1744199;81;21107;-72
2022/11/30 11:57:52;;;;;;;12.90;8.88;;;31.00;83.40;;;;;;1789232;79;21134;-73
2022/11/30 12:00:27;;;;;;;15.38;10.18;;;30.90;83.40;;;;;;1780702;79;21158;-71
2022/11/30 12:03:03;;;;;;;15.40;9.23;;;30.90;83.70;;;;;;1747003;81;21137;-72
2022/11/30 12:05:42;;;;;;;15.28;8.35;;;30.90;83.70;;;;;;1781812;80;21108;-73
2022/11/30 12:08:31;;;;;;;13.08;8.30;;;30.90;83.70;;;;;;1792460;78;21154;-72
2022/11/30 12:11:10;;;;;;;15.45;8.85;;;30.90;83.70;;;;;;1744166;80;21151;-72
2022/11/30 12:13:43;;;;;;;13.93;9.10;;;30.90;84.10;;;;;;1738236;81;21178;-72
2022/11/30 12:16:18;;;;;;;19.65;10.32;;;30.90;84.00;;;;;;1753814;80;21233;-72
2022/11/30 12:19:21;;;;;;;22.02;11.60;;;30.80;84.00;;;;;;1796969;78;21123;-73
2022/11/30 12:22:00;;;;;;;18.95;11.85;;;30.80;84.00;;;;;;1795457;78;21182;-72
2022/11/30 12:25:02;;;;;;;19.17;10.68;;;30.80;84.10;;;;;;1775613;79;21197;-73
2022/11/30 12:27:54;;;;;;;19.15;10.13;;;30.80;84.40;;;;;;1738515;81;21661;-73
2022/11/30 12:30:27;;;;;;;17.12;9.70;;;30.80;84.40;;;;;;1767426;79;21354;-73
2022/11/30 12:33:13;;;;;;;15.60;8.95;;;30.80;84.60;;;;;;1792210;80;21256;-73
2022/11/30 12:36:02;;;;;;;14.30;8.98;;;30.70;84.60;;;;;;1779666;80;21239;-72
2022/11/30 12:38:54;;;;;;;18.85;10.80;;;30.70;84.80;;;;;;1763108;79;21206;-73
2022/11/30 12:41:31;;;;;;;17.25;11.20;;;30.70;84.90;;;;;;1793798;80;22349;-73
2022/11/30 12:44:19;;;;;;;19.40;9.98;;;30.70;84.90;;;;;;1784990;79;21130;-74
2022/11/30 12:47:15;;;;;;;18.37;9.28;;;30.60;85.10;;;;;;1764751;79;21127;-73
2022/11/30 12:49:51;;;;;;;15.38;9.08;;;30.60;85.20;;;;;;1759890;80;21218;-74
2022/11/30 12:52:41;;;;;;;14.45;8.70;;;30.60;85.30;;;;;;1779283;79;21683;-72
2022/11/30 12:55:33;;;;;;;17.25;9.05;;;30.60;85.50;;;;;;1785778;78;21220;-73
2022/11/30 12:58:22;;;;;;;15.40;9.65;;;30.60;85.80;;;;;;1785400;80;21209;-73
2022/11/30 13:00:57;;;;;;;15.50;9.10;;;30.60;85.90;;;;;;1789670;79;21160;-73
2022/11/30 13:03:55;;;;;;;18.12;10.08;;;30.60;86.30;;;;;;1787573;79;21744;-73
2022/11/30 13:06:34;;;;;;;18.32;9.38;;;30.50;86.40;;;;;;1790384;79;21260;-72
2022/11/30 13:09:08;;;;;;;14.53;10.00;;;30.50;86.60;;;;;;1794944;79;21655;-81
2022/11/30 13:11:41;;;;;;;13.20;9.73;;;30.50;86.90;;;;;;1791290;79;21252;-88
2022/11/30 13:14:20;;;;;;;15.85;9.55;;;30.50;87.10;;;;;;1792044;79;21138;-85
2022/11/30 13:16:54;;;;;;;15.20;9.78;;;30.50;87.40;;;;;;1789077;79;21160;-85
2022/11/30 13:19:28;;;;;;;14.18;9.50;;;30.40;87.50;;;;;;1786130;78;21753;-83
2022/11/30 13:22:01;;;;;;;13.25;9.18;;;30.40;87.60;;;;;;1779784;79;21166;-85